TimePST,TemperatureF,Dew PointF,Humidity,Sea Level PressureIn,VisibilityMPH,Wind Direction,Wind SpeedMPH,Gust SpeedMPH,PrecipitationIn,Events,Conditions,WindDirDegrees,DateUTC
12:53 AM,46.9,30.0,52,30.11,10.0,North,8.1,-,N/A,,Clear,10,2012-12-31 08:53:00
1:53 AM,48.9,30.0,48,30.12,10.0,North,5.8,-,N/A,,Clear,10,2012-12-31 09:53:00
2:53 AM,48.0,30.0,50,30.12,10.0,NNE,9.2,-,N/A,,Clear,30,2012-12-31 10:53:00
3:53 AM,50.0,28.9,44,30.12,10.0,NNE,11.5,21.9,N/A,,Clear,20,2012-12-31 11:53:00
4:53 AM,39.9,30.0,68,30.12,10.0,Variable,3.5,-,N/A,,Clear,0,2012-12-31 12:53:00
6:53 AM,39.9,30.0,68,30.16,10.0,Calm,Calm,-,N/A,,Clear,0,2012-12-31 14:53:00
7:53 AM,44.1,30.9,60,30.16,10.0,SSE,3.5,-,N/A,,Clear,160,2012-12-31 15:53:00
8:53 AM,52.0,35.1,53,30.19,10.0,Calm,Calm,-,N/A,,Clear,0,2012-12-31 16:53:00
9:53 AM,55.9,35.1,45,30.23,10.0,Variable,4.6,-,N/A,,Clear,0,2012-12-31 17:53:00
10:53 AM,57.0,37.9,49,30.22,10.0,SSE,4.6,-,N/A,,Clear,150,2012-12-31 18:53:00
11:53 AM,55.9,37.9,51,30.21,10.0,Variable,4.6,-,N/A,,Clear,0,2012-12-31 19:53:00
12:53 PM,57.0,36.0,45,30.19,10.0,SW,6.9,-,N/A,,Clear,230,2012-12-31 20:53:00
1:53 PM,57.0,36.0,45,30.19,10.0,West,9.2,-,N/A,,Partly Cloudy,260,2012-12-31 21:53:00
2:53 PM,57.0,33.1,40,30.19,10.0,WSW,9.2,-,N/A,,Clear,250,2012-12-31 22:53:00
3:53 PM,55.9,34.0,44,30.19,10.0,West,6.9,-,N/A,,Partly Cloudy,260,2012-12-31 23:53:00
4:53 PM,53.1,35.1,50,30.19,10.0,WNW,5.8,-,N/A,,Clear,300,2013-01-01 00:53:00
5:53 PM,48.9,36.0,61,30.19,10.0,NNW,3.5,-,N/A,,Clear,340,2013-01-01 01:53:00
6:53 PM,46.9,36.0,66,30.21,10.0,Calm,Calm,-,N/A,,Clear,0,2013-01-01 02:53:00
7:53 PM,45.0,36.0,71,30.22,9.0,Calm,Calm,-,N/A,,Clear,0,2013-01-01 03:53:00
8:53 PM,42.1,36.0,79,30.21,10.0,Calm,Calm,-,N/A,,Clear,0,2013-01-01 04:53:00
9:53 PM,44.1,37.0,76,30.23,10.0,Calm,Calm,-,N/A,,Clear,0,2013-01-01 05:53:00
10:53 PM,42.1,36.0,79,30.23,10.0,Calm,Calm,-,N/A,,Clear,0,2013-01-01 06:53:00
11:53 PM,39.9,36.0,86,30.23,10.0,Calm,Calm,-,N/A,,Clear,0,2013-01-01 07:53:00